createdAt,value
2023-02-26T00:01:24.696Z,101963.94
2023-02-26T00:03:54.585Z,101969.75
2023-02-26T00:06:22.784Z,101969.00
2023-02-26T00:08:50.760Z,101974.44
2023-02-26T00:11:19.160Z,101979.94
2023-02-26T00:13:47.795Z,101981.59
2023-02-26T00:16:27.624Z,101986.75
2023-02-26T00:18:56.635Z,101994.09
2023-02-26T00:21:26.476Z,101990.22
2023-02-26T00:23:54.835Z,101990.75
2023-02-26T00:26:26.778Z,101993.22
2023-02-26T00:28:56.078Z,101995.28
2023-02-26T00:31:26.472Z,101991.84
2023-02-26T00:33:57.305Z,101996.78
2023-02-26T00:36:31.238Z,101998.28
2023-02-26T00:39:11.217Z,101994.41
2023-02-26T00:41:40.096Z,101992.97
2023-02-26T00:44:08.609Z,101995.59
2023-02-26T00:46:45.675Z,102005.16
2023-02-26T00:49:24.204Z,102007.59
2023-02-26T00:51:56.694Z,102011.38
2023-02-26T00:54:26.545Z,102017.97
2023-02-26T00:56:56.104Z,102022.28
2023-02-26T00:59:24.138Z,102022.81
2023-02-26T01:01:54.576Z,102023.19
2023-02-26T01:04:24.696Z,102022.53
2023-02-26T01:06:54.981Z,102033.59
2023-02-26T01:09:26.815Z,102028.00
2023-02-26T01:11:57.814Z,102033.47
2023-02-26T01:14:26.369Z,102038.25
2023-02-26T01:17:04.546Z,102041.50
2023-02-26T01:19:40.382Z,102053.94
2023-02-26T01:22:14.306Z,102050.06
2023-02-26T01:24:42.863Z,102054.38
2023-02-26T01:27:11.202Z,102045.31
2023-02-26T01:29:39.461Z,102050.81
2023-02-26T01:32:16.801Z,102064.00
2023-02-26T01:34:51.057Z,102062.63
2023-02-26T01:37:28.378Z,102059.91
2023-02-26T01:40:19.168Z,102061.75
2023-02-26T01:42:52.283Z,102068.00
2023-02-26T01:45:27.193Z,102062.91
2023-02-26T01:48:03.394Z,102071.47
2023-02-26T01:50:35.720Z,102074.16
2023-02-26T01:53:21.474Z,102065.72
2023-02-26T01:55:55.438Z,102069.72
2023-02-26T01:58:25.111Z,102079.22
2023-02-26T02:00:53.430Z,102081.03
2023-02-26T02:03:25.835Z,102073.69
2023-02-26T02:05:58.193Z,102090.13
2023-02-26T02:08:26.334Z,102089.16
2023-02-26T02:10:55.239Z,102093.47
2023-02-26T02:13:42.197Z,102110.56
2023-02-26T02:16:20.030Z,102109.69
2023-02-26T02:18:57.416Z,102110.78
2023-02-26T02:22:15.036Z,102116.09
2023-02-26T02:24:59.163Z,102112.00
2023-02-26T02:27:36.733Z,102112.16
2023-02-26T02:30:19.209Z,102114.34
2023-02-26T02:32:52.248Z,102119.25
2023-02-26T02:35:25.929Z,102129.63
2023-02-26T02:37:58.822Z,102132.69
2023-02-26T02:40:32.198Z,102128.09
2023-02-26T02:43:04.643Z,102127.97
2023-02-26T02:45:38.794Z,102130.88
2023-02-26T02:48:12.227Z,102129.03
2023-02-26T02:50:45.534Z,102134.13
2023-02-26T02:53:19.137Z,102142.22
2023-02-26T02:55:49.613Z,102137.97
2023-02-26T02:58:21.878Z,102142.41
2023-02-26T03:00:52.240Z,102141.22
2023-02-26T03:03:29.024Z,102135.72
2023-02-26T03:05:57.224Z,102147.63
2023-02-26T03:08:29.119Z,102144.72
2023-02-26T03:10:59.165Z,102144.81
2023-02-26T03:13:27.899Z,102147.63
2023-02-26T03:16:16.537Z,102153.22
2023-02-26T03:18:54.824Z,102158.34
2023-02-26T03:21:30.534Z,102162.31
2023-02-26T03:24:05.810Z,102162.19
2023-02-26T03:26:40.947Z,102156.03
2023-02-26T03:29:17.414Z,102169.41
2023-02-26T03:31:54.365Z,102170.41
2023-02-26T03:34:30.080Z,102182.19
2023-02-26T03:37:03.389Z,102183.25
2023-02-26T03:39:38.985Z,102187.50
2023-02-26T03:42:14.541Z,102188.47
2023-02-26T03:44:56.951Z,102191.94
2023-02-26T03:47:26.319Z,102195.03
2023-02-26T03:50:04.789Z,102204.03
2023-02-26T03:52:41.362Z,102214.94
2023-02-26T03:55:31.451Z,102215.03
2023-02-26T03:58:08.144Z,102216.88
2023-02-26T04:01:00.771Z,102222.19
2023-02-26T04:03:33.908Z,102225.28
2023-02-26T04:06:04.708Z,102222.31
2023-02-26T04:08:33.652Z,102236.66
2023-02-26T04:11:07.470Z,102240.13
2023-02-26T04:13:35.473Z,102243.69
2023-02-26T04:16:04.019Z,102243.09
2023-02-26T04:18:32.240Z,102251.69
2023-02-26T04:21:00.367Z,102254.59
2023-02-26T04:23:29.748Z,102257.88
2023-02-26T04:25:59.321Z,102257.41
2023-02-26T04:28:27.764Z,102262.03
2023-02-26T04:30:56.465Z,102269.84
2023-02-26T04:33:24.426Z,102267.72
2023-02-26T04:35:52.913Z,102267.44
2023-02-26T04:38:21.203Z,102266.84
2023-02-26T04:40:52.358Z,102272.38
2023-02-26T04:43:21.512Z,102285.94
2023-02-26T04:46:02.098Z,102283.56
2023-02-26T04:48:31.694Z,102284.78
2023-02-26T04:50:59.914Z,102293.28
2023-02-26T04:53:28.159Z,102290.50
2023-02-26T04:55:58.847Z,102294.16
2023-02-26T04:58:27.256Z,102294.53
2023-02-26T05:00:58.709Z,102293.19
2023-02-26T05:03:27.232Z,102295.03
2023-02-26T05:05:56.024Z,102308.34
2023-02-26T05:08:24.496Z,102308.22
2023-02-26T05:10:52.746Z,102313.53
2023-02-26T05:13:22.265Z,102317.59
2023-02-26T05:15:50.460Z,102322.91
2023-02-26T05:18:18.434Z,102322.69
2023-02-26T05:20:53.592Z,102327.06
2023-02-26T05:23:21.736Z,102331.47
2023-02-26T05:25:49.995Z,102331.88
2023-02-26T05:28:18.771Z,102341.03
2023-02-26T05:30:48.350Z,102339.22
2023-02-26T05:33:16.399Z,102341.72
2023-02-26T05:35:45.580Z,102341.59
2023-02-26T05:38:13.604Z,102347.00
2023-02-26T05:40:42.019Z,102348.69
2023-02-26T05:43:10.489Z,102354.09
2023-02-26T05:45:38.802Z,102354.28
2023-02-26T05:48:08.332Z,102360.63
2023-02-26T05:50:36.889Z,102353.22
2023-02-26T05:53:04.915Z,102360.34
2023-02-26T05:55:33.072Z,102362.88
2023-02-26T05:58:01.617Z,102369.59
2023-02-26T06:00:31.080Z,102378.66
2023-02-26T06:02:59.201Z,102372.59
2023-02-26T06:05:29.577Z,102381.56
2023-02-26T06:07:57.774Z,102383.66
2023-02-26T06:10:27.082Z,102389.94
2023-02-26T06:12:55.805Z,102397.16
2023-02-26T06:15:24.292Z,102399.22
2023-02-26T06:17:52.405Z,102410.00
2023-02-26T06:20:20.755Z,102408.53
2023-02-26T06:22:50.760Z,102411.34
2023-02-26T06:25:19.268Z,102408.22
2023-02-26T06:27:47.782Z,102417.78
2023-02-26T06:30:16.023Z,102419.53
2023-02-26T06:32:44.506Z,102419.34
2023-02-26T06:35:13.214Z,102420.03
2023-02-26T06:37:41.376Z,102421.59
2023-02-26T06:40:13.023Z,102428.44
2023-02-26T06:42:41.097Z,102426.97
2023-02-26T06:45:10.202Z,102438.84
2023-02-26T06:47:38.247Z,102446.66
2023-02-26T06:50:07.373Z,102447.13
2023-02-26T06:52:35.751Z,102452.47
2023-02-26T06:55:04.164Z,102451.16
2023-02-26T06:57:33.842Z,102453.25
2023-02-26T07:00:02.561Z,102456.88
2023-02-26T07:02:31.081Z,102456.78
2023-02-26T07:04:59.268Z,102463.91
2023-02-26T07:07:27.406Z,102461.84
2023-02-26T07:09:55.562Z,102472.03
2023-02-26T07:12:23.761Z,102474.34
2023-02-26T07:14:53.207Z,102469.25
2023-02-26T07:17:21.599Z,102482.47
2023-02-26T07:19:51.207Z,102478.38
2023-02-26T07:22:21.933Z,102476.56
2023-02-26T07:24:51.461Z,102477.44
2023-02-26T07:27:19.501Z,102473.47
2023-02-26T07:29:47.480Z,102477.94
2023-02-26T07:32:16.846Z,102475.72
2023-02-26T07:34:44.879Z,102481.94
2023-02-26T07:37:13.046Z,102480.94
2023-02-26T07:39:40.985Z,102483.47
2023-02-26T07:42:09.175Z,102480.41
2023-02-26T07:44:37.268Z,102482.06
2023-02-26T07:47:05.470Z,102491.72
2023-02-26T07:49:34.921Z,102490.66
2023-02-26T07:52:03.370Z,102501.28
2023-02-26T07:54:31.581Z,102503.88
2023-02-26T07:56:59.764Z,102503.72
2023-02-26T07:59:28.136Z,102508.25
2023-02-26T08:01:56.107Z,102502.53
2023-02-26T08:04:24.460Z,102515.97
2023-02-26T08:06:54.924Z,102510.94
2023-02-26T08:09:23.108Z,102526.03
2023-02-26T08:11:51.060Z,102528.41
2023-02-26T08:14:19.307Z,102534.50
2023-02-26T08:16:47.306Z,102538.34
2023-02-26T08:19:15.559Z,102531.94
2023-02-26T08:21:43.507Z,102534.94
2023-02-26T08:24:14.863Z,102542.75
2023-02-26T08:26:42.842Z,102541.09
2023-02-26T08:29:10.801Z,102545.44
2023-02-26T08:31:38.762Z,102552.53
2023-02-26T08:34:06.833Z,102554.06
2023-02-26T08:36:34.761Z,102554.34
2023-02-26T08:39:03.603Z,102560.53
2023-02-26T08:41:33.056Z,102562.34
2023-02-26T08:44:01.411Z,102567.41
2023-02-26T08:46:29.938Z,102571.75
2023-02-26T08:48:58.290Z,102577.47
2023-02-26T08:51:26.878Z,102581.94
2023-02-26T08:53:55.343Z,102587.03
2023-02-26T08:56:24.227Z,102591.22
2023-02-26T08:58:53.892Z,102590.16
2023-02-26T09:01:22.226Z,102587.13
2023-02-26T09:03:50.278Z,102583.94
2023-02-26T09:06:18.197Z,102591.59
2023-02-26T09:08:46.464Z,102600.31
2023-02-26T09:11:14.756Z,102599.91
2023-02-26T09:13:42.803Z,102603.31
2023-02-26T09:16:12.620Z,102605.13
2023-02-26T09:18:40.955Z,102602.44
2023-02-26T09:21:09.451Z,102605.69
2023-02-26T09:23:37.586Z,102615.56
2023-02-26T09:26:05.919Z,102616.16
2023-02-26T09:28:34.031Z,102620.03
2023-02-26T09:31:02.433Z,102620.31
2023-02-26T09:33:31.753Z,102619.63
2023-02-26T09:35:59.746Z,102624.09
2023-02-26T09:38:27.889Z,102625.72
2023-02-26T09:41:00.794Z,102628.53
2023-02-26T09:43:47.116Z,102623.69
2023-02-26T09:46:25.738Z,102637.50
2023-02-26T09:49:04.892Z,102635.97
2023-02-26T09:51:36.002Z,102636.25
2023-02-26T09:54:13.286Z,102635.63
2023-02-26T09:56:41.640Z,102643.22
2023-02-26T09:59:10.672Z,102643.06
2023-02-26T10:01:48.678Z,102652.41
2023-02-26T10:04:27.977Z,102655.31
2023-02-26T10:07:08.555Z,102651.34
2023-02-26T10:09:51.352Z,102653.84
2023-02-26T10:12:21.648Z,102652.34
2023-02-26T10:14:56.434Z,102666.25
2023-02-26T10:17:30.086Z,102664.88
2023-02-26T10:20:04.765Z,102662.97
2023-02-26T10:22:38.874Z,102657.03
2023-02-26T10:25:11.792Z,102668.56
2023-02-26T10:27:49.549Z,102670.13
2023-02-26T10:30:25.137Z,102677.09
2023-02-26T10:33:04.265Z,102674.66
2023-02-26T10:35:38.581Z,102679.97
2023-02-26T10:38:12.299Z,102677.19
2023-02-26T10:40:45.785Z,102689.34
2023-02-26T10:43:16.376Z,102689.47
2023-02-26T10:45:53.848Z,102690.31
2023-02-26T10:48:44.669Z,102693.25
2023-02-26T10:51:17.902Z,102688.31
2023-02-26T10:53:56.616Z,102692.25
2023-02-26T10:56:27.541Z,102689.66
2023-02-26T10:58:56.002Z,102696.13
2023-02-26T11:01:26.711Z,102699.72
2023-02-26T11:03:58.963Z,102709.84
2023-02-26T11:06:34.708Z,102706.38
2023-02-26T11:09:15.538Z,102709.00
2023-02-26T11:11:48.172Z,102713.06
2023-02-26T11:14:17.201Z,102712.50
2023-02-26T11:16:49.294Z,102711.69
2023-02-26T11:19:18.576Z,102711.63
2023-02-26T11:21:48.829Z,102716.00
2023-02-26T11:24:29.885Z,102713.94
2023-02-26T11:27:03.768Z,102720.13
2023-02-26T11:29:39.166Z,102711.13
2023-02-26T11:32:08.568Z,102722.09
2023-02-26T11:34:36.767Z,102720.06
2023-02-26T11:37:06.796Z,102705.41
2023-02-26T11:39:37.410Z,102715.13
2023-02-26T11:42:06.646Z,102726.22
2023-02-26T11:44:39.758Z,102717.22
2023-02-26T11:47:13.243Z,102727.56
2023-02-26T11:49:45.322Z,102717.88
2023-02-26T11:52:24.140Z,102719.41
2023-02-26T11:54:58.273Z,102717.66
2023-02-26T11:57:29.147Z,102721.88
2023-02-26T12:00:00.163Z,102716.91
2023-02-26T12:02:35.052Z,102716.69
2023-02-26T12:05:07.542Z,102712.38
2023-02-26T12:07:37.843Z,102714.69
2023-02-26T12:10:14.961Z,102705.53
2023-02-26T12:13:02.596Z,102711.31
2023-02-26T12:15:37.523Z,102720.59
2023-02-26T12:18:31.482Z,102711.63
2023-02-26T12:21:14.304Z,102718.13
2023-02-26T12:24:12.480Z,102709.03
2023-02-26T12:26:47.021Z,102723.53
2023-02-26T12:29:47.594Z,102728.53
2023-02-26T12:32:32.116Z,102718.69
2023-02-26T12:35:27.582Z,102712.00
2023-02-26T12:38:09.787Z,102717.00
2023-02-26T12:41:19.567Z,102711.91
2023-02-26T12:43:54.259Z,102709.31
2023-02-26T12:46:44.748Z,102710.84
2023-02-26T12:49:37.103Z,102703.31
2023-02-26T12:52:19.744Z,102709.31
2023-02-26T12:55:09.786Z,102720.13
2023-02-26T12:58:06.494Z,102717.53
2023-02-26T13:01:12.890Z,102719.09
2023-02-26T13:04:04.549Z,102718.72
2023-02-26T13:06:56.598Z,102721.47
2023-02-26T13:09:35.910Z,102718.28
2023-02-26T13:12:17.977Z,102731.69
2023-02-26T13:14:56.712Z,102734.53
2023-02-26T13:17:33.051Z,102732.81
2023-02-26T13:20:11.546Z,102739.19
2023-02-26T13:22:43.800Z,102728.03
2023-02-26T13:25:20.746Z,102727.25
2023-02-26T13:27:50.367Z,102728.19
2023-02-26T13:30:24.954Z,102735.09
2023-02-26T13:33:00.544Z,102739.03
2023-02-26T13:35:34.702Z,102729.81
2023-02-26T13:38:08.050Z,102733.91
2023-02-26T13:40:48.857Z,102729.66
2023-02-26T13:43:33.261Z,102730.53
2023-02-26T13:46:14.343Z,102724.94
2023-02-26T13:48:50.392Z,102730.19
2023-02-26T13:51:30.719Z,102731.13
2023-02-26T13:54:04.432Z,102722.03
2023-02-26T13:56:48.698Z,102729.88
2023-02-26T13:59:31.746Z,102726.81
2023-02-26T14:02:03.360Z,102723.31
2023-02-26T14:04:32.846Z,102722.03
2023-02-26T14:07:11.887Z,102720.44
2023-02-26T14:09:55.576Z,102725.09
2023-02-26T14:12:26.899Z,102726.03
2023-02-26T14:15:29.485Z,102735.50
2023-02-26T14:18:20.689Z,102729.31
2023-02-26T14:20:49.299Z,102741.81
2023-02-26T14:23:37.667Z,102739.03
2023-02-26T14:26:18.597Z,102734.50
2023-02-26T14:28:57.297Z,102730.38
2023-02-26T14:31:27.874Z,102719.53
2023-02-26T14:34:05.586Z,102725.81
2023-02-26T14:36:39.548Z,102729.22
2023-02-26T14:39:23.472Z,102727.75
2023-02-26T14:41:56.950Z,102731.13
2023-02-26T14:44:29.280Z,102744.75
2023-02-26T14:46:58.875Z,102740.28
2023-02-26T14:49:31.037Z,102728.75
2023-02-26T14:52:34.068Z,102740.97
2023-02-26T14:55:23.024Z,102737.44
2023-02-26T14:57:59.050Z,102741.34
2023-02-26T15:00:36.233Z,102739.50
2023-02-26T15:03:36.190Z,102739.53
2023-02-26T15:06:18.670Z,102742.03
2023-02-26T15:09:01.101Z,102748.53
2023-02-26T15:11:47.641Z,102740.78
2023-02-26T15:14:31.633Z,102744.91
2023-02-26T15:17:10.706Z,102735.34
2023-02-26T15:19:57.591Z,102744.66
2023-02-26T15:22:40.657Z,102739.41
2023-02-26T15:25:20.516Z,102734.56
2023-02-26T15:27:50.768Z,102733.09
2023-02-26T15:30:19.455Z,102735.66
2023-02-26T15:32:48.053Z,102746.44
2023-02-26T15:35:19.911Z,102733.88
2023-02-26T15:37:51.087Z,102741.66
2023-02-26T15:40:21.103Z,102740.00
2023-02-26T15:42:53.250Z,102735.38
2023-02-26T15:45:27.497Z,102741.06
2023-02-26T15:47:58.894Z,102742.16
2023-02-26T15:50:32.527Z,102749.84
2023-02-26T15:53:03.522Z,102744.09
2023-02-26T15:55:37.250Z,102743.31
2023-02-26T15:58:09.036Z,102740.16
2023-02-26T16:00:39.947Z,102746.03
2023-02-26T16:03:08.380Z,102748.88
2023-02-26T16:05:38.972Z,102754.53
2023-02-26T16:08:07.624Z,102760.75
2023-02-26T16:10:40.602Z,102760.63
2023-02-26T16:13:15.979Z,102761.59
2023-02-26T16:15:44.771Z,102768.50
2023-02-26T16:18:16.423Z,102763.31
2023-02-26T16:20:47.500Z,102757.56
2023-02-26T16:23:18.981Z,102765.56
2023-02-26T16:25:53.574Z,102766.00
2023-02-26T16:28:27.836Z,102775.00
2023-02-26T16:30:59.030Z,102777.28
2023-02-26T16:33:28.144Z,102776.19
2023-02-26T16:36:03.801Z,102782.06
2023-02-26T16:38:34.705Z,102776.38
2023-02-26T16:41:07.783Z,102776.38
2023-02-26T16:43:51.931Z,102785.50
2023-02-26T16:46:24.757Z,102785.91
2023-02-26T16:48:57.169Z,102787.75
2023-02-26T16:51:29.656Z,102796.84
2023-02-26T16:54:02.072Z,102792.66
2023-02-26T16:56:34.100Z,102795.16
2023-02-26T16:59:09.171Z,102799.03
2023-02-26T17:01:40.819Z,102801.75
2023-02-26T17:04:12.190Z,102803.50
2023-02-26T17:06:42.069Z,102808.94
2023-02-26T17:09:26.246Z,102805.44
2023-02-26T17:12:13.947Z,102808.47
2023-02-26T17:14:45.897Z,102806.72
2023-02-26T17:17:13.963Z,102813.53
2023-02-26T17:19:42.180Z,102814.22
2023-02-26T17:22:20.748Z,102817.63
2023-02-26T17:24:49.628Z,102819.06
2023-02-26T17:27:22.446Z,102812.19
2023-02-26T17:29:52.612Z,102814.81
2023-02-26T17:32:23.065Z,102813.06
2023-02-26T17:34:52.038Z,102809.91
2023-02-26T17:37:21.256Z,102806.50
2023-02-26T17:39:50.965Z,102814.59
2023-02-26T17:42:23.127Z,102821.25
2023-02-26T17:44:52.881Z,102824.06
2023-02-26T17:47:23.403Z,102820.09
2023-02-26T17:49:51.435Z,102824.56
2023-02-26T17:52:19.610Z,102830.34
2023-02-26T17:54:48.206Z,102823.41
2023-02-26T17:57:18.573Z,102826.88
2023-02-26T17:59:46.940Z,102828.31
2023-02-26T18:02:23.198Z,102826.00
2023-02-26T18:04:52.052Z,102826.00
2023-02-26T18:07:21.197Z,102824.28
2023-02-26T18:09:49.703Z,102824.28
2023-02-26T18:12:20.222Z,102829.09
2023-02-26T18:14:48.974Z,102827.88
2023-02-26T18:17:23.534Z,102830.69
2023-02-26T18:19:51.868Z,102836.09
2023-02-26T18:22:25.178Z,102841.50
2023-02-26T18:24:53.534Z,102841.19
2023-02-26T18:27:24.200Z,102834.03
2023-02-26T18:29:53.051Z,102824.91
2023-02-26T18:32:25.148Z,102828.41
2023-02-26T18:34:53.460Z,102833.16
2023-02-26T18:37:26.075Z,102839.47
2023-02-26T18:39:56.917Z,102838.69
2023-02-26T18:42:27.173Z,102841.41
2023-02-26T18:44:56.162Z,102837.63
2023-02-26T18:47:26.830Z,102841.41
2023-02-26T18:49:55.163Z,102837.84
2023-02-26T18:52:23.088Z,102838.88
2023-02-26T18:54:51.107Z,102837.91
2023-02-26T18:57:19.756Z,102840.63
2023-02-26T18:59:48.036Z,102836.28
2023-02-26T19:02:16.091Z,102844.81
2023-02-26T19:04:47.185Z,102840.25
2023-02-26T19:07:15.493Z,102859.16
2023-02-26T19:09:43.477Z,102850.06
2023-02-26T19:12:14.537Z,102848.31
2023-02-26T19:14:42.747Z,102849.94
2023-02-26T19:17:10.739Z,102843.34
2023-02-26T19:19:40.674Z,102845.38
2023-02-26T19:22:10.152Z,102846.25
2023-02-26T19:24:38.350Z,102852.66
2023-02-26T19:27:07.868Z,102851.56
2023-02-26T19:29:36.930Z,102856.16
2023-02-26T19:32:05.935Z,102854.69
2023-02-26T19:34:34.786Z,102863.13
2023-02-26T19:37:03.208Z,102864.47
2023-02-26T19:39:34.561Z,102860.78
2023-02-26T19:42:02.796Z,102865.94
2023-02-26T19:44:32.304Z,102867.28
2023-02-26T19:47:01.071Z,102870.09
2023-02-26T19:49:29.977Z,102870.28
2023-02-26T19:51:58.432Z,102870.88
2023-02-26T19:54:27.049Z,102873.88
2023-02-26T19:56:56.699Z,102871.28
2023-02-26T19:59:24.898Z,102872.22
2023-02-26T20:01:53.299Z,102880.56
2023-02-26T20:04:21.408Z,102882.97
2023-02-26T20:06:49.397Z,102889.19
2023-02-26T20:09:19.092Z,102883.38
2023-02-26T20:11:47.515Z,102886.16
2023-02-26T20:14:16.949Z,102888.50
2023-02-26T20:16:45.105Z,102892.38
2023-02-26T20:19:13.665Z,102884.44
2023-02-26T20:21:41.789Z,102894.81
2023-02-26T20:24:10.299Z,102899.84
2023-02-26T20:26:38.424Z,102900.44
2023-02-26T20:29:06.647Z,102904.66
2023-02-26T20:31:36.094Z,102903.41
2023-02-26T20:34:05.270Z,102900.81
2023-02-26T20:36:33.693Z,102910.38
2023-02-26T20:39:02.713Z,102913.50
2023-02-26T20:41:30.782Z,102921.59
2023-02-26T20:43:58.897Z,102917.16
2023-02-26T20:46:27.236Z,102920.47
2023-02-26T20:48:56.664Z,102914.47
2023-02-26T20:51:25.663Z,102916.19
2023-02-26T20:53:54.582Z,102916.09
2023-02-26T20:56:22.758Z,102921.81
2023-02-26T20:58:51.120Z,102920.97
2023-02-26T21:01:19.268Z,102923.09
2023-02-26T21:03:47.219Z,102926.00
2023-02-26T21:06:16.581Z,102929.75
2023-02-26T21:08:44.980Z,102926.47
2023-02-26T21:11:13.542Z,102926.34
2023-02-26T21:13:41.448Z,102927.50
2023-02-26T21:16:09.830Z,102931.78
2023-02-26T21:18:37.963Z,102932.47
2023-02-26T21:21:06.913Z,102934.69
2023-02-26T21:23:36.306Z,102939.72
2023-02-26T21:26:04.747Z,102932.75
2023-02-26T21:28:32.879Z,102935.53
2023-02-26T21:31:00.963Z,102938.53
2023-02-26T21:33:29.193Z,102941.13
2023-02-26T21:35:57.181Z,102940.75
2023-02-26T21:38:25.688Z,102943.00
2023-02-26T21:40:55.099Z,102949.38
2023-02-26T21:43:23.096Z,102943.84
2023-02-26T21:45:51.348Z,102938.44
2023-02-26T21:48:19.479Z,102945.22
2023-02-26T21:50:49.308Z,102938.03
2023-02-26T21:53:17.302Z,102935.19
2023-02-26T21:55:45.644Z,102936.50
2023-02-26T21:58:15.027Z,102940.69
2023-02-26T22:00:43.450Z,102944.66
2023-02-26T22:03:11.896Z,102948.81
2023-02-26T22:05:39.936Z,102949.94
2023-02-26T22:08:07.881Z,102942.25
2023-02-26T22:10:36.159Z,102946.59
2023-02-26T22:13:04.825Z,102948.31
2023-02-26T22:15:34.310Z,102943.19
2023-02-26T22:18:02.554Z,102945.66
2023-02-26T22:20:31.246Z,102949.81
2023-02-26T22:22:59.456Z,102955.19
2023-02-26T22:25:27.586Z,102958.56
2023-02-26T22:27:55.919Z,102951.78
2023-02-26T22:30:24.242Z,102957.69
2023-02-26T22:32:53.930Z,102957.00
2023-02-26T22:35:22.144Z,102954.22
2023-02-26T22:37:50.267Z,102960.50
2023-02-26T22:40:18.345Z,102961.22
2023-02-26T22:42:46.316Z,102964.13
2023-02-26T22:45:17.498Z,102959.00
2023-02-26T22:47:45.887Z,102962.91
2023-02-26T22:50:15.859Z,102965.81
2023-02-26T22:52:44.242Z,102960.28
2023-02-26T22:55:13.137Z,102967.31
2023-02-26T22:57:41.202Z,102968.19
2023-02-26T23:00:16.190Z,102970.91
2023-02-26T23:02:44.293Z,102974.44
2023-02-26T23:05:12.883Z,102974.66
2023-02-26T23:07:42.589Z,102978.66
2023-02-26T23:10:13.059Z,102979.13
2023-02-26T23:12:41.229Z,102980.88
2023-02-26T23:15:10.911Z,102985.16
2023-02-26T23:17:39.696Z,102980.06
2023-02-26T23:20:11.830Z,102978.84
2023-02-26T23:22:39.714Z,102982.88
2023-02-26T23:25:09.973Z,102980.31
2023-02-26T23:27:37.872Z,102986.44
2023-02-26T23:30:08.285Z,102984.22
2023-02-26T23:32:36.732Z,102982.66
2023-02-26T23:35:05.480Z,102973.88
2023-02-26T23:37:33.379Z,102971.75
2023-02-26T23:40:01.377Z,102978.63
2023-02-26T23:42:30.936Z,102976.88
2023-02-26T23:44:58.925Z,102973.19
2023-02-26T23:47:27.481Z,102984.41
2023-02-26T23:49:55.649Z,102973.47
2023-02-26T23:52:25.711Z,102985.88
2023-02-26T23:54:54.547Z,102981.88
2023-02-26T23:57:22.511Z,102987.38
2023-02-26T23:59:51.784Z,102985.66
